createdAt,value
2022-10-30T00:00:44.853Z,49.36
2022-10-30T00:03:14.281Z,49.51
2022-10-30T00:05:44.526Z,49.22
2022-10-30T00:08:14.605Z,51.35
2022-10-30T00:10:43.154Z,51.09
2022-10-30T00:13:12.454Z,51.51
2022-10-30T00:15:47.581Z,51.98
2022-10-30T00:18:15.944Z,50.50
2022-10-30T00:20:44.256Z,51.16
2022-10-30T00:23:12.573Z,50.65
2022-10-30T00:25:40.983Z,50.92
2022-10-30T00:28:09.491Z,52.31
2022-10-30T00:30:38.871Z,51.11
2022-10-30T00:33:08.580Z,50.67
2022-10-30T00:35:36.946Z,49.55
2022-10-30T00:38:05.239Z,50.13
2022-10-30T00:40:33.915Z,50.68
2022-10-30T00:43:02.157Z,51.61
2022-10-30T00:45:30.411Z,51.76
2022-10-30T00:48:03.066Z,51.84
2022-10-30T00:50:38.088Z,51.59
2022-10-30T00:53:08.867Z,51.29
2022-10-30T00:55:41.272Z,50.66
2022-10-30T00:58:13.587Z,50.82
2022-10-30T01:00:45.099Z,50.36
2022-10-30T01:03:13.471Z,50.59
2022-10-30T01:05:47.964Z,50.97
2022-10-30T01:08:16.287Z,52.75
2022-10-30T01:10:45.351Z,53.28
2022-10-30T01:13:14.008Z,52.44
2022-10-30T01:15:53.346Z,51.70
2022-10-30T01:18:36.105Z,52.18
2022-10-30T01:21:24.878Z,52.68
2022-10-30T01:24:04.057Z,52.41
2022-10-30T01:26:45.185Z,52.51
2022-10-30T01:29:29.713Z,52.72
2022-10-30T01:32:13.657Z,55.54
2022-10-30T01:34:48.441Z,58.22
2022-10-30T01:37:24.246Z,59.20
2022-10-30T01:39:53.778Z,60.69
2022-10-30T01:42:55.691Z,63.67
2022-10-30T01:45:33.045Z,64.69
2022-10-30T01:48:28.335Z,65.04
2022-10-30T01:51:02.215Z,64.52
2022-10-30T01:53:45.440Z,62.95
2022-10-30T01:56:27.780Z,62.33
2022-10-30T01:59:02.112Z,61.03
2022-10-30T02:01:35.101Z,61.98
2022-10-30T02:06:37.709Z,60.61
2022-10-30T02:09:08.123Z,59.96
2022-10-30T02:11:37.274Z,58.40
2022-10-30T02:14:08.246Z,60.79
2022-10-30T02:16:40.179Z,58.60
2022-10-30T02:19:08.406Z,59.40
2022-10-30T02:21:38.150Z,59.03
2022-10-30T02:24:07.318Z,58.74
2022-10-30T02:26:35.821Z,59.01
2022-10-30T02:29:04.088Z,59.83
2022-10-30T02:31:32.400Z,59.27
2022-10-30T02:34:00.675Z,57.89
2022-10-30T02:36:28.966Z,57.30
2022-10-30T02:38:58.683Z,57.65
2022-10-30T02:41:27.024Z,58.16
2022-10-30T02:43:55.359Z,57.78
2022-10-30T02:46:23.754Z,58.95
2022-10-30T02:48:52.042Z,61.92
2022-10-30T02:51:20.349Z,61.46
2022-10-30T02:53:48.688Z,60.55
2022-10-30T02:56:18.771Z,58.94
2022-10-30T02:58:46.998Z,57.66
2022-10-30T03:01:16.943Z,57.57
2022-10-30T03:03:46.048Z,57.10
2022-10-30T03:06:16.762Z,56.26
2022-10-30T03:08:45.944Z,56.82
2022-10-30T03:11:16.630Z,56.80
2022-10-30T03:13:47.909Z,56.19
2022-10-30T03:16:18.029Z,56.32
2022-10-30T03:18:46.548Z,56.25
2022-10-30T03:21:16.115Z,56.03
2022-10-30T03:23:44.578Z,56.79
2022-10-30T03:26:13.230Z,56.25
2022-10-30T03:28:41.503Z,56.40
2022-10-30T03:31:12.935Z,56.56
2022-10-30T03:33:41.602Z,56.46
2022-10-30T03:36:12.350Z,58.06
2022-10-30T03:38:40.909Z,57.79
2022-10-30T03:41:09.148Z,57.78
2022-10-30T03:43:37.391Z,58.14
2022-10-30T03:46:06.133Z,58.22
2022-10-30T03:48:35.779Z,57.70
2022-10-30T03:51:04.762Z,57.09
2022-10-30T03:53:33.049Z,56.15
2022-10-30T03:56:03.082Z,56.57
2022-10-30T03:58:31.874Z,56.51
2022-10-30T04:01:03.221Z,56.80
2022-10-30T04:03:31.615Z,56.52
2022-10-30T04:06:01.302Z,57.18
2022-10-30T04:08:29.509Z,57.10
2022-10-30T04:10:57.801Z,56.94
2022-10-30T04:13:26.062Z,56.67
2022-10-30T04:15:57.993Z,56.07
2022-10-30T04:18:27.440Z,55.70
2022-10-30T04:20:55.920Z,58.29
2022-10-30T04:23:25.551Z,58.11
2022-10-30T04:25:53.785Z,57.44
2022-10-30T04:28:22.312Z,58.62
2022-10-30T04:30:52.015Z,58.79
2022-10-30T04:33:20.257Z,58.77
2022-10-30T04:35:48.503Z,60.77
2022-10-30T04:38:19.125Z,61.72
2022-10-30T04:40:48.739Z,63.45
2022-10-30T04:43:16.931Z,63.71
2022-10-30T04:45:45.092Z,63.84
2022-10-30T04:48:15.054Z,63.04
2022-10-30T04:50:43.962Z,62.13
2022-10-30T04:53:15.240Z,63.26
2022-10-30T04:55:44.268Z,62.62
2022-10-30T04:58:14.494Z,63.42
2022-10-30T05:00:43.244Z,63.28
2022-10-30T05:03:19.694Z,62.32
2022-10-30T05:05:49.101Z,62.76
2022-10-30T05:08:17.293Z,63.04
2022-10-30T05:10:45.474Z,62.91
2022-10-30T05:13:15.107Z,63.40
2022-10-30T05:15:43.373Z,63.40
2022-10-30T05:18:11.850Z,65.71
2022-10-30T05:20:40.065Z,65.08
2022-10-30T05:23:08.545Z,65.04
2022-10-30T05:25:36.818Z,64.60
2022-10-30T05:28:07.802Z,65.95
2022-10-30T05:30:37.535Z,64.15
2022-10-30T05:33:08.018Z,62.39
2022-10-30T05:35:37.158Z,61.30
2022-10-30T05:38:08.400Z,60.40
2022-10-30T05:40:36.647Z,59.59
2022-10-30T05:43:05.456Z,58.74
2022-10-30T05:45:33.688Z,57.59
2022-10-30T05:48:04.805Z,56.23
2022-10-30T05:50:34.030Z,55.84
2022-10-30T05:53:04.052Z,55.35
2022-10-30T05:55:32.742Z,54.72
2022-10-30T05:58:02.596Z,55.36
2022-10-30T06:00:32.377Z,54.89
2022-10-30T06:03:03.353Z,53.94
2022-10-30T06:05:33.546Z,53.36
2022-10-30T06:08:01.988Z,52.52
2022-10-30T06:10:30.724Z,52.06
2022-10-30T06:13:01.227Z,51.04
2022-10-30T06:15:31.179Z,50.92
2022-10-30T06:17:59.858Z,50.59
2022-10-30T06:20:31.529Z,49.62
2022-10-30T06:23:01.455Z,48.74
2022-10-30T06:25:31.115Z,48.35
2022-10-30T06:28:00.884Z,48.48
2022-10-30T06:30:29.750Z,47.65
2022-10-30T06:32:59.771Z,47.59
2022-10-30T06:35:30.426Z,46.79
2022-10-30T06:38:00.365Z,46.02
2022-10-30T06:40:30.168Z,47.48
2022-10-30T06:42:59.466Z,46.44
2022-10-30T06:45:28.025Z,45.76
2022-10-30T06:47:56.614Z,44.92
2022-10-30T06:50:25.432Z,44.13
2022-10-30T06:52:56.044Z,45.58
2022-10-30T06:55:24.275Z,43.91
2022-10-30T06:57:56.764Z,42.66
2022-10-30T07:00:25.645Z,42.74
2022-10-30T07:02:59.054Z,42.19
2022-10-30T07:05:27.658Z,42.37
2022-10-30T07:07:59.254Z,41.83
2022-10-30T07:10:30.499Z,40.79
2022-10-30T07:13:00.134Z,40.85
2022-10-30T07:15:29.092Z,41.52
2022-10-30T07:17:58.911Z,40.68
2022-10-30T07:20:29.836Z,40.12
2022-10-30T07:22:59.741Z,39.50
2022-10-30T07:25:28.099Z,39.45
2022-10-30T07:27:58.148Z,39.88
2022-10-30T07:30:28.331Z,38.64
2022-10-30T07:33:01.056Z,38.84
2022-10-30T07:35:30.579Z,37.36
2022-10-30T07:38:03.440Z,38.29
2022-10-30T07:40:31.729Z,36.79
2022-10-30T07:43:01.166Z,38.58
2022-10-30T07:45:30.176Z,35.37
2022-10-30T07:47:58.562Z,35.26
2022-10-30T07:50:27.745Z,36.15
2022-10-30T07:52:55.974Z,34.99
2022-10-30T07:55:25.740Z,34.32
2022-10-30T07:57:53.929Z,35.25
2022-10-30T08:00:22.359Z,34.77
2022-10-30T08:02:51.868Z,34.57
2022-10-30T08:05:21.016Z,34.16
2022-10-30T08:07:51.480Z,33.73
2022-10-30T08:10:19.775Z,33.74
2022-10-30T08:12:49.317Z,33.88
2022-10-30T08:15:17.582Z,33.96
2022-10-30T08:17:46.749Z,33.57
2022-10-30T08:20:16.906Z,31.83
2022-10-30T08:22:49.003Z,31.64
2022-10-30T08:25:19.191Z,32.32
2022-10-30T08:27:57.411Z,31.34
2022-10-30T08:30:26.721Z,31.76
2022-10-30T08:32:58.983Z,32.03
2022-10-30T08:35:27.760Z,30.91
2022-10-30T08:37:57.112Z,30.37
2022-10-30T08:40:26.277Z,29.87
2022-10-30T08:42:56.873Z,29.41
2022-10-30T08:45:29.974Z,30.50
2022-10-30T08:48:01.386Z,29.72
2022-10-30T08:50:30.262Z,29.78
2022-10-30T08:53:02.353Z,29.70
2022-10-30T08:55:31.310Z,26.45
2022-10-30T08:58:01.057Z,28.85
2022-10-30T09:00:29.800Z,27.72
2022-10-30T09:02:58.627Z,29.34
2022-10-30T09:05:27.253Z,28.38
2022-10-30T09:07:58.105Z,27.75
2022-10-30T09:10:27.719Z,26.65
2022-10-30T09:12:56.874Z,26.55
2022-10-30T09:15:27.701Z,26.52
2022-10-30T09:17:59.915Z,26.96
2022-10-30T09:20:29.066Z,26.27
2022-10-30T09:22:59.660Z,26.42
2022-10-30T09:25:28.175Z,25.67
2022-10-30T09:27:56.380Z,24.56
2022-10-30T09:30:26.736Z,24.06
2022-10-30T09:32:59.012Z,23.26
2022-10-30T09:35:27.941Z,24.22
2022-10-30T09:37:56.538Z,25.54
2022-10-30T09:40:35.899Z,24.71
2022-10-30T09:43:16.104Z,23.68
2022-10-30T09:46:17.088Z,23.69
2022-10-30T09:49:03.513Z,23.87
2022-10-30T09:51:54.599Z,23.92
2022-10-30T09:54:35.694Z,22.18
2022-10-30T09:57:12.085Z,24.45
2022-10-30T09:59:51.563Z,22.79
2022-10-30T10:02:33.759Z,22.74
2022-10-30T10:05:11.674Z,22.83
2022-10-30T10:07:46.074Z,22.95
2022-10-30T10:10:21.669Z,22.92
2022-10-30T10:12:53.852Z,22.26
2022-10-30T10:15:36.108Z,21.81
2022-10-30T10:18:13.908Z,21.48
2022-10-30T10:20:45.299Z,21.97
2022-10-30T10:23:19.638Z,23.14
2022-10-30T10:25:54.677Z,21.97
2022-10-30T10:28:47.417Z,21.64
2022-10-30T10:31:39.435Z,21.76
2022-10-30T10:34:42.212Z,21.62
2022-10-30T10:37:21.702Z,21.36
2022-10-30T10:40:04.041Z,21.37
2022-10-30T10:42:42.640Z,21.42
2022-10-30T10:45:25.687Z,21.55
2022-10-30T10:48:18.340Z,20.80
2022-10-30T10:50:54.008Z,21.09
2022-10-30T10:53:27.475Z,20.43
2022-10-30T10:56:00.098Z,20.51
2022-10-30T10:58:32.406Z,19.26
2022-10-30T11:01:01.586Z,20.13
2022-10-30T11:03:44.407Z,19.67
2022-10-30T11:06:22.947Z,20.36
2022-10-30T11:08:53.672Z,19.37
2022-10-30T11:11:21.918Z,19.67
2022-10-30T11:13:51.279Z,19.83
2022-10-30T11:16:28.543Z,20.32
2022-10-30T11:19:02.068Z,19.18
2022-10-30T11:21:36.488Z,20.08
2022-10-30T11:24:04.899Z,19.43
2022-10-30T11:26:35.557Z,19.31
2022-10-30T11:29:12.983Z,19.69
2022-10-30T11:31:43.038Z,18.70
2022-10-30T11:34:33.332Z,19.22
2022-10-30T11:37:03.516Z,18.56
2022-10-30T11:39:34.246Z,18.38
2022-10-30T11:42:06.660Z,20.09
2022-10-30T11:44:42.545Z,18.68
2022-10-30T11:47:13.544Z,18.82
2022-10-30T11:49:47.248Z,18.94
2022-10-30T11:52:20.307Z,19.03
2022-10-30T11:54:53.571Z,19.35
2022-10-30T11:57:25.366Z,19.67
2022-10-30T12:00:00.572Z,18.99
2022-10-30T12:02:42.525Z,19.56
2022-10-30T12:05:31.790Z,19.29
2022-10-30T12:08:19.880Z,19.34
2022-10-30T12:10:55.802Z,18.71
2022-10-30T12:13:26.275Z,18.85
2022-10-30T12:16:08.066Z,19.21
2022-10-30T12:18:36.920Z,20.02
2022-10-30T12:21:05.702Z,19.73
2022-10-30T12:23:36.144Z,20.30
2022-10-30T12:26:12.209Z,20.03
2022-10-30T12:28:41.038Z,19.25
2022-10-30T12:31:15.738Z,19.15
2022-10-30T12:33:50.371Z,19.46
2022-10-30T12:36:22.311Z,20.36
2022-10-30T12:38:59.556Z,20.33
2022-10-30T12:41:31.338Z,20.18
2022-10-30T12:44:04.857Z,19.91
2022-10-30T12:46:39.808Z,19.99
2022-10-30T12:49:19.551Z,21.17
2022-10-30T12:51:52.842Z,20.02
2022-10-30T12:54:32.325Z,20.09
2022-10-30T12:57:08.695Z,19.48
2022-10-30T12:59:45.672Z,20.43
2022-10-30T13:02:25.176Z,21.46
2022-10-30T13:04:59.463Z,19.65
2022-10-30T13:07:33.238Z,20.17
2022-10-30T13:10:20.170Z,19.92
2022-10-30T13:12:54.732Z,20.80
2022-10-30T13:15:31.004Z,21.13
2022-10-30T13:18:00.848Z,21.44
2022-10-30T13:20:31.653Z,20.88
2022-10-30T13:23:07.262Z,21.46
2022-10-30T13:25:43.444Z,20.68
2022-10-30T13:28:19.231Z,20.16
2022-10-30T13:31:00.627Z,21.42
2022-10-30T13:33:37.716Z,21.05
2022-10-30T13:36:12.782Z,20.86
2022-10-30T13:38:53.785Z,20.90
2022-10-30T13:41:32.676Z,20.78
2022-10-30T13:44:11.307Z,20.86
2022-10-30T13:46:59.596Z,20.53
2022-10-30T13:49:44.010Z,21.03
2022-10-30T13:52:15.702Z,22.88
2022-10-30T13:54:50.650Z,21.04
2022-10-30T13:57:30.208Z,20.94
2022-10-30T14:00:05.616Z,23.37
2022-10-30T14:02:48.932Z,23.76
2022-10-30T14:05:30.200Z,24.41
2022-10-30T14:08:06.949Z,24.25
2022-10-30T14:10:53.305Z,25.40
2022-10-30T14:13:30.313Z,25.37
2022-10-30T14:16:02.492Z,26.40
2022-10-30T14:18:47.436Z,26.01
2022-10-30T14:21:41.961Z,26.43
2022-10-30T14:24:16.815Z,28.02
2022-10-30T14:26:52.694Z,28.06
2022-10-30T14:29:53.251Z,27.96
2022-10-30T14:32:40.246Z,28.28
2022-10-30T14:35:38.268Z,29.31
2022-10-30T14:38:27.136Z,30.07
2022-10-30T14:41:14.691Z,29.52
2022-10-30T14:43:53.671Z,31.96
2022-10-30T14:46:29.112Z,32.88
2022-10-30T14:49:11.032Z,33.04
2022-10-30T14:51:46.339Z,33.23
2022-10-30T14:54:23.089Z,33.66
2022-10-30T14:56:54.202Z,34.38
2022-10-30T14:59:33.434Z,34.59
2022-10-30T15:02:22.421Z,35.47
2022-10-30T15:05:20.496Z,35.25
2022-10-30T15:07:53.593Z,34.92
2022-10-30T15:10:27.245Z,34.34
2022-10-30T15:13:13.277Z,33.76
2022-10-30T15:15:46.558Z,34.73
2022-10-30T15:18:22.486Z,35.01
2022-10-30T15:20:54.127Z,35.21
2022-10-30T15:23:26.396Z,34.80
2022-10-30T15:25:56.607Z,35.08
2022-10-30T15:28:29.406Z,36.64
2022-10-30T15:31:05.059Z,37.01
2022-10-30T15:33:38.081Z,37.28
2022-10-30T15:36:07.385Z,36.96
2022-10-30T15:38:36.019Z,36.72
2022-10-30T15:41:08.672Z,36.68
2022-10-30T15:43:41.624Z,36.45
2022-10-30T15:46:11.375Z,36.92
2022-10-30T15:48:47.101Z,36.95
2022-10-30T15:51:18.416Z,36.92
2022-10-30T15:53:49.450Z,37.32
2022-10-30T15:56:20.384Z,37.49
2022-10-30T15:58:54.714Z,37.09
2022-10-30T16:01:27.753Z,37.03
2022-10-30T16:03:57.496Z,36.47
2022-10-30T16:06:27.773Z,37.15
2022-10-30T16:09:00.383Z,36.51
2022-10-30T16:11:29.308Z,37.65
2022-10-30T16:13:57.762Z,37.13
2022-10-30T16:16:35.206Z,37.36
2022-10-30T16:19:07.393Z,37.23
2022-10-30T16:21:40.227Z,38.32
2022-10-30T16:24:11.522Z,38.57
2022-10-30T16:26:50.411Z,38.13
2022-10-30T16:29:25.617Z,38.67
2022-10-30T16:31:55.035Z,38.21
2022-10-30T16:34:32.161Z,38.33
2022-10-30T16:37:01.225Z,38.41
2022-10-30T16:39:30.145Z,38.46
2022-10-30T16:41:59.127Z,38.91
2022-10-30T16:44:29.258Z,39.49
2022-10-30T16:46:59.803Z,38.80
2022-10-30T16:49:31.839Z,38.15
2022-10-30T16:52:03.710Z,38.93
2022-10-30T16:54:36.860Z,39.10
2022-10-30T16:57:11.092Z,39.12
2022-10-30T16:59:46.983Z,39.16
2022-10-30T17:02:21.331Z,39.42
2022-10-30T17:04:57.172Z,40.96
2022-10-30T17:07:28.093Z,42.04
2022-10-30T17:09:58.736Z,44.38
2022-10-30T17:12:28.303Z,42.74
2022-10-30T17:15:04.383Z,42.56
2022-10-30T17:17:35.353Z,42.34
2022-10-30T17:20:07.740Z,41.80
2022-10-30T17:22:36.229Z,40.64
2022-10-30T17:25:17.334Z,40.45
2022-10-30T17:27:49.364Z,40.05
2022-10-30T17:30:35.734Z,40.26
2022-10-30T17:33:23.569Z,42.77
2022-10-30T17:38:22.807Z,43.88
2022-10-30T17:40:51.287Z,44.49
2022-10-30T17:43:19.700Z,43.25
2022-10-30T17:45:47.929Z,41.89
2022-10-30T17:48:17.606Z,42.75
2022-10-30T17:50:46.279Z,42.47
2022-10-30T17:53:21.962Z,41.63
2022-10-30T17:55:56.852Z,41.83
2022-10-30T17:58:25.356Z,43.53
2022-10-30T18:00:54.389Z,44.88
2022-10-30T18:03:22.758Z,45.21
2022-10-30T18:05:51.959Z,45.09
2022-10-30T18:08:22.084Z,43.90
2022-10-30T18:10:50.666Z,43.35
2022-10-30T18:13:20.128Z,43.54
2022-10-30T18:15:53.989Z,42.28
2022-10-30T18:18:25.455Z,42.11
2022-10-30T18:20:53.884Z,43.63
2022-10-30T18:26:16.895Z,43.24
2022-10-30T18:28:45.562Z,44.36
2022-10-30T18:31:15.119Z,44.99
2022-10-30T18:33:44.394Z,46.01
2022-10-30T18:36:14.560Z,46.61
2022-10-30T18:38:44.327Z,46.43
2022-10-30T18:41:16.744Z,46.15
2022-10-30T18:43:47.085Z,46.43
2022-10-30T18:46:17.314Z,46.89
2022-10-30T18:48:46.585Z,47.76
2022-10-30T18:51:19.003Z,45.92
2022-10-30T18:53:52.699Z,46.26
2022-10-30T18:56:22.770Z,46.00
2022-10-30T18:58:56.386Z,46.55
2022-10-30T19:01:33.217Z,46.34
2022-10-30T19:04:04.008Z,47.19
2022-10-30T19:06:34.808Z,47.41
2022-10-30T19:09:05.339Z,47.47
2022-10-30T19:11:33.756Z,47.19
2022-10-30T19:14:02.413Z,47.54
2022-10-30T19:16:30.664Z,48.04
2022-10-30T19:18:59.151Z,47.98
2022-10-30T19:21:28.178Z,47.12
2022-10-30T19:23:56.658Z,46.36
2022-10-30T19:26:26.345Z,47.03
2022-10-30T19:28:57.129Z,46.13
2022-10-30T19:31:25.956Z,44.93
2022-10-30T19:33:57.516Z,45.55
2022-10-30T19:36:31.990Z,45.88
2022-10-30T19:39:05.833Z,45.97
2022-10-30T19:41:39.096Z,45.74
2022-10-30T19:44:07.740Z,45.19
2022-10-30T19:46:36.752Z,45.57
2022-10-30T19:49:16.563Z,45.97
2022-10-30T19:51:45.641Z,46.37
2022-10-30T19:54:14.112Z,46.32
2022-10-30T19:56:44.347Z,47.22
2022-10-30T19:59:14.495Z,48.04
2022-10-30T20:01:44.307Z,47.55
2022-10-30T20:04:12.816Z,47.19
2022-10-30T20:06:41.118Z,46.64
2022-10-30T20:09:11.967Z,46.95
2022-10-30T20:11:40.258Z,47.13
2022-10-30T20:14:10.506Z,47.06
2022-10-30T20:16:38.768Z,46.57
2022-10-30T20:19:27.291Z,47.36
2022-10-30T20:21:55.732Z,47.09
2022-10-30T20:24:24.087Z,46.89
2022-10-30T20:26:53.004Z,47.66
2022-10-30T20:29:23.885Z,47.31
2022-10-30T20:31:52.112Z,47.38
2022-10-30T20:34:20.384Z,48.13
2022-10-30T20:36:49.576Z,48.33
2022-10-30T20:39:17.844Z,47.66
2022-10-30T20:41:46.152Z,48.11
2022-10-30T20:44:14.542Z,47.44
2022-10-30T20:46:44.431Z,48.04
2022-10-30T20:49:17.590Z,47.68
2022-10-30T20:51:46.725Z,48.16
2022-10-30T20:54:15.066Z,47.87
2022-10-30T20:56:43.317Z,47.87
2022-10-30T20:59:11.611Z,47.70
2022-10-30T21:01:39.986Z,47.72
2022-10-30T21:04:09.715Z,48.08
2022-10-30T21:06:37.892Z,48.11
2022-10-30T21:09:06.408Z,48.18
2022-10-30T21:11:34.715Z,48.50
2022-10-30T21:14:02.950Z,48.33
2022-10-30T21:16:31.248Z,48.48
2022-10-30T21:18:59.742Z,48.55
2022-10-30T21:21:29.426Z,48.76
2022-10-30T21:23:57.964Z,49.04
2022-10-30T21:26:26.210Z,48.47
2022-10-30T21:28:54.609Z,48.99
2022-10-30T21:31:22.933Z,48.95
2022-10-30T21:33:51.274Z,48.93
2022-10-30T21:36:21.154Z,49.00
2022-10-30T21:38:50.919Z,49.55
2022-10-30T21:41:20.979Z,49.22
2022-10-30T21:43:53.643Z,49.81
2022-10-30T21:46:22.773Z,50.13
2022-10-30T21:48:52.183Z,50.33
2022-10-30T21:51:22.174Z,51.35
2022-10-30T21:53:53.455Z,52.61
2022-10-30T21:56:23.355Z,53.36
2022-10-30T21:58:52.517Z,54.65
2022-10-30T22:01:22.659Z,54.12
2022-10-30T22:03:51.259Z,52.64
2022-10-30T22:06:21.090Z,52.40
2022-10-30T22:08:51.978Z,51.33
2022-10-30T22:11:26.759Z,51.02
2022-10-30T22:13:55.943Z,50.34
2022-10-30T22:16:24.546Z,51.16
2022-10-30T22:18:52.861Z,50.29
2022-10-30T22:21:21.083Z,50.38
2022-10-30T22:23:49.480Z,49.91
2022-10-30T22:26:20.092Z,49.50
2022-10-30T22:28:55.264Z,52.46
2022-10-30T22:31:28.921Z,53.98
2022-10-30T22:33:57.379Z,53.78
2022-10-30T22:36:27.797Z,54.03
2022-10-30T22:38:58.144Z,53.13
2022-10-30T22:41:28.750Z,52.27
2022-10-30T22:44:01.051Z,51.93
2022-10-30T22:46:33.803Z,51.86
2022-10-30T22:49:02.039Z,51.50
2022-10-30T22:51:33.281Z,51.72
2022-10-30T22:54:04.143Z,52.02
2022-10-30T22:56:33.949Z,51.27
2022-10-30T22:59:05.248Z,51.25
2022-10-30T23:01:35.203Z,51.37
2022-10-30T23:04:04.881Z,51.46
2022-10-30T23:06:34.558Z,51.77
2022-10-30T23:09:06.247Z,54.36
2022-10-30T23:11:34.932Z,55.75
2022-10-30T23:14:07.583Z,55.77
2022-10-30T23:16:35.865Z,55.88
2022-10-30T23:19:04.113Z,55.69
2022-10-30T23:21:32.958Z,55.03
2022-10-30T23:24:03.511Z,54.10
2022-10-30T23:26:33.178Z,53.13
2022-10-30T23:29:02.105Z,53.06
2022-10-30T23:31:33.710Z,52.65
2022-10-30T23:34:03.255Z,52.84
2022-10-30T23:36:31.875Z,53.00
2022-10-30T23:39:01.691Z,53.52
2022-10-30T23:41:34.368Z,53.47
2022-10-30T23:44:05.122Z,53.23
2022-10-30T23:46:36.382Z,53.48
2022-10-30T23:49:05.195Z,53.15
2022-10-30T23:51:33.524Z,53.31
2022-10-30T23:54:01.936Z,52.99
2022-10-30T23:56:30.695Z,53.46
2022-10-30T23:58:59.304Z,53.98
